createdAt,value
2019-05-14T02:33:59.089Z,4.00
2019-05-14T02:46:59.207Z,8.00
2019-05-14T02:47:59.962Z,12.00
2019-05-14T02:52:59.917Z,16.00
2019-05-14T02:53:59.127Z,16.00
2019-05-14T02:56:59.640Z,28.00
2019-05-14T03:10:59.952Z,112.00
2019-05-14T03:11:59.524Z,120.00
2019-05-14T03:12:59.054Z,128.00
2019-05-14T03:14:58.850Z,148.00
2019-05-14T03:15:59.488Z,164.00
2019-05-14T03:16:59.450Z,176.00
2019-05-14T03:17:59.663Z,188.00
2019-05-14T03:18:59.508Z,200.00
2019-05-14T03:19:59.872Z,216.00
2019-05-14T03:21:00.444Z,232.00
2019-05-14T03:21:59.968Z,244.00
2019-05-14T03:24:21.177Z,284.00
2019-05-14T03:25:21.166Z,296.00
2019-05-14T03:26:21.154Z,316.00
2019-05-14T03:27:21.148Z,332.00
2019-05-14T03:28:21.142Z,348.00
2019-05-14T03:29:25.552Z,364.00
2019-05-14T03:30:22.817Z,384.00
2019-05-14T03:31:22.750Z,400.00
2019-05-14T03:32:22.989Z,420.00
2019-05-14T03:33:22.484Z,436.00
2019-05-14T03:34:22.513Z,456.00
2019-05-14T03:35:23.476Z,472.00
2019-05-14T03:36:26.246Z,496.00
2019-05-14T03:37:24.104Z,512.00
2019-05-14T03:38:21.025Z,532.00
2019-05-14T03:39:21.013Z,552.00
2019-05-14T03:40:20.996Z,572.00
2019-05-14T03:41:21.003Z,592.00
2019-05-14T03:42:20.980Z,616.00
2019-05-14T03:43:20.966Z,628.00
2019-05-14T03:44:20.958Z,648.00
2019-05-14T03:45:20.946Z,668.00
2019-05-14T03:46:39.822Z,684.00
2019-05-14T03:47:21.994Z,704.00
2019-05-14T03:48:20.916Z,720.00
2019-05-14T03:49:20.893Z,740.00
2019-05-14T03:50:20.888Z,760.00
2019-05-14T03:51:20.878Z,776.00
2019-05-14T03:52:20.871Z,792.00
2019-05-14T03:53:20.854Z,812.00
2019-05-14T03:54:20.840Z,828.00
2019-05-14T03:55:20.837Z,848.00
2019-05-14T03:56:20.845Z,868.00
2019-05-14T03:57:20.807Z,884.00
2019-05-14T03:58:21.508Z,904.00
2019-05-14T03:59:20.920Z,920.00
2019-05-14T04:00:20.781Z,940.00
2019-05-14T04:01:20.773Z,960.00
2019-05-14T04:02:20.758Z,976.00
2019-05-14T04:03:20.745Z,996.00
2019-05-14T04:04:20.740Z,1012.00
2019-05-14T04:05:22.602Z,1032.00
2019-05-14T04:06:20.708Z,1048.00
2019-05-14T04:07:20.692Z,1116.00
2019-05-14T04:08:21.742Z,1684.00
2019-05-14T04:09:20.671Z,2420.00
2019-05-14T04:10:20.658Z,2508.00
2019-05-14T04:11:20.652Z,2572.00
2019-05-14T04:12:20.639Z,2632.00
2019-05-14T04:13:20.624Z,2688.00
2019-05-14T04:14:20.622Z,2756.00
2019-05-14T04:15:20.603Z,2772.00
2019-05-14T04:16:20.589Z,2684.00
2019-05-14T04:17:32.412Z,2664.00
2019-05-14T04:18:45.050Z,2808.00
2019-05-14T04:19:45.034Z,2260.00
2019-05-14T04:20:45.024Z,1724.00
2019-05-14T04:21:45.013Z,1876.00
2019-05-14T04:22:45.000Z,2628.00
2019-05-14T04:23:44.991Z,3268.00
2019-05-14T04:24:44.982Z,3360.00
2019-05-14T04:25:44.968Z,2964.00
2019-05-14T04:27:01.636Z,2128.00
2019-05-14T04:28:09.918Z,1424.00
2019-05-14T04:29:10.223Z,1416.00
2019-05-14T04:30:09.598Z,1436.00
2019-05-14T04:31:09.926Z,1460.00
2019-05-14T04:32:09.665Z,1480.00
2019-05-14T04:33:10.580Z,1504.00
2019-05-14T04:34:10.768Z,1528.00
2019-05-14T04:35:09.692Z,1544.00
2019-05-14T04:36:10.112Z,1580.00
2019-05-14T04:37:09.798Z,2152.00
2019-05-14T04:38:09.700Z,2764.00
2019-05-14T04:39:09.729Z,2800.00
2019-05-14T04:40:10.307Z,2712.00
2019-05-14T04:41:10.402Z,2532.00
2019-05-14T04:42:09.918Z,2280.00
2019-05-14T04:43:10.139Z,2544.00
2019-05-14T04:44:09.924Z,3656.00
2019-05-14T04:45:10.885Z,6616.00
2019-05-14T04:46:10.343Z,8244.00
2019-05-14T04:47:25.344Z,8008.00
2019-05-14T05:08:52.277Z,12248.00
2019-05-14T05:09:52.269Z,13428.00
2019-05-14T05:10:52.270Z,13884.00
2019-05-14T05:11:52.267Z,13996.00
2019-05-14T05:12:52.267Z,13476.00
2019-05-14T05:13:52.282Z,13144.00
2019-05-14T05:14:52.214Z,13600.00
2019-05-14T05:15:52.223Z,14052.00
2019-05-14T05:16:52.216Z,13968.00
2019-05-14T05:17:53.205Z,14132.00
2019-05-14T05:18:52.158Z,14224.00
2019-05-14T05:19:52.165Z,14636.00
2019-05-14T05:20:52.137Z,15004.00
2019-05-14T05:21:52.124Z,15860.00
2019-05-14T05:22:52.112Z,15956.00
2019-05-14T05:23:52.100Z,16252.00
2019-05-14T05:24:52.092Z,16400.00
2019-05-14T05:25:52.079Z,16376.00
2019-05-14T05:26:52.070Z,17756.00
2019-05-14T05:27:52.060Z,18816.00
2019-05-14T05:29:03.701Z,18276.00
2019-05-14T05:29:53.053Z,18384.00
2019-05-14T05:30:52.020Z,18308.00
2019-05-14T05:31:52.010Z,18312.00
2019-05-14T05:32:51.997Z,16612.00
2019-05-14T05:33:51.992Z,17076.00
2019-05-14T05:34:51.977Z,18624.00
2019-05-14T05:35:51.972Z,19616.00
2019-05-14T05:36:51.953Z,20768.00
2019-05-14T05:37:51.941Z,9832.00
2019-05-14T05:39:51.919Z,7816.00
2019-05-14T05:40:56.673Z,20288.00
2019-05-14T05:41:51.896Z,9264.00
2019-05-14T05:42:51.886Z,19360.00
2019-05-14T05:43:51.875Z,30240.00
2019-05-14T05:44:51.866Z,28320.00
2019-05-14T05:45:51.851Z,25280.00
2019-05-14T05:46:51.842Z,22784.00
2019-05-14T05:47:57.422Z,23456.00
2019-05-14T05:49:18.524Z,22560.00
2019-05-14T05:50:16.309Z,22880.00
2019-05-14T05:51:18.705Z,23296.00
2019-05-14T05:52:16.264Z,22560.00
2019-05-14T05:53:16.262Z,25312.00
2019-05-14T05:54:18.504Z,12968.00
2019-05-14T05:55:16.234Z,24736.00
2019-05-14T05:56:18.451Z,26752.00
2019-05-14T05:57:18.581Z,8792.00
2019-05-14T05:58:16.194Z,31392.00
2019-05-14T05:59:18.771Z,12140.00
2019-05-14T06:00:18.809Z,15340.00
2019-05-14T06:01:16.164Z,18528.00
2019-05-14T06:02:18.395Z,32608.00
2019-05-14T06:03:16.135Z,16308.00
2019-05-14T06:04:18.178Z,14676.00
2019-05-14T06:05:18.544Z,38464.00
2019-05-14T06:06:16.102Z,15396.00
2019-05-14T06:07:18.184Z,22880.00
2019-05-14T06:08:16.086Z,11128.00
2019-05-14T06:09:18.081Z,10316.00
2019-05-14T06:10:18.566Z,9376.00
2019-05-14T06:11:16.044Z,7888.00
2019-05-14T06:12:16.037Z,7060.00
2019-05-14T06:13:18.102Z,7060.00
2019-05-14T06:14:16.009Z,7196.00
2019-05-14T06:15:16.000Z,7500.00
2019-05-14T06:16:18.401Z,8092.00
2019-05-14T06:17:15.979Z,8532.00
2019-05-14T06:18:19.538Z,8848.00
2019-05-14T06:19:18.366Z,11120.00
2019-05-14T06:20:15.944Z,15208.00
2019-05-14T06:21:18.647Z,16844.00
2019-05-14T06:22:15.921Z,40384.00
2019-05-14T06:23:15.919Z,38272.00
2019-05-14T06:24:15.901Z,35680.00
2019-05-14T06:25:15.891Z,37024.00
2019-05-14T06:26:18.789Z,37696.00
2019-05-14T06:27:17.998Z,18636.00
2019-05-14T06:28:15.856Z,31552.00
2019-05-14T06:29:15.840Z,34624.00
2019-05-14T06:30:18.265Z,34656.00
2019-05-14T06:31:15.819Z,34752.00
2019-05-14T06:32:18.430Z,36704.00
2019-05-14T06:33:15.796Z,39264.00
2019-05-14T06:34:18.466Z,42880.00
2019-05-14T06:35:15.773Z,41344.00
2019-05-14T06:36:15.762Z,38816.00
2019-05-14T06:37:15.756Z,7304.00
2019-05-14T06:38:15.739Z,5956.00
2019-05-14T06:39:18.118Z,7304.00
2019-05-14T06:40:15.716Z,8188.00
2019-05-14T06:41:15.712Z,43744.00
2019-05-14T06:42:15.697Z,25376.00
2019-05-14T06:43:15.688Z,40960.00
2019-05-14T06:44:15.677Z,40032.00
2019-05-14T06:45:18.516Z,37024.00
2019-05-14T06:46:15.649Z,37632.00
2019-05-14T06:47:15.645Z,42048.00
2019-05-14T06:48:28.153Z,43872.00
2019-05-14T06:49:40.096Z,42560.00
2019-05-14T06:50:40.088Z,49600.00
2019-05-14T06:51:40.075Z,19136.00
2019-05-14T06:52:40.062Z,48896.00
2019-05-14T06:53:40.054Z,9728.00
2019-05-14T06:54:40.041Z,15704.00
2019-05-14T06:55:40.024Z,26304.00
2019-05-14T06:56:40.012Z,35168.00
2019-05-14T06:57:40.006Z,18216.00
2019-05-14T06:58:39.990Z,20064.00
2019-05-14T06:59:39.977Z,24768.00
2019-05-14T07:00:39.967Z,31104.00
2019-05-14T07:01:39.955Z,17192.00
2019-05-14T07:02:43.580Z,14792.00
2019-05-14T07:03:39.931Z,19712.00
2019-05-14T07:04:39.921Z,27552.00
2019-05-14T07:05:39.914Z,20000.00
2019-05-14T07:06:39.899Z,16900.00
2019-05-14T07:07:40.608Z,43808.00
2019-05-14T07:08:39.880Z,17348.00
2019-05-14T07:09:39.871Z,14188.00
2019-05-14T07:10:39.854Z,15704.00
2019-05-14T07:11:39.845Z,25088.00
2019-05-14T07:12:39.840Z,58240.00
2019-05-14T07:13:39.826Z,48640.00
2019-05-14T07:14:39.826Z,26752.00
2019-05-14T07:15:39.807Z,17160.00
2019-05-14T07:16:39.795Z,9972.00
2019-05-14T07:17:39.783Z,8476.00
2019-05-14T07:18:53.428Z,45632.00
2019-05-14T07:19:40.986Z,9284.00
2019-05-14T07:20:39.752Z,7196.00
2019-05-14T07:21:39.733Z,8392.00
2019-05-14T07:22:39.737Z,11068.00
2019-05-14T07:23:39.719Z,12552.00
2019-05-14T07:24:40.614Z,10832.00
2019-05-14T07:25:39.690Z,14324.00
2019-05-14T07:26:39.678Z,13576.00
2019-05-14T07:27:39.676Z,15592.00
2019-05-14T07:28:42.437Z,17540.00
2019-05-14T07:29:39.654Z,60512.00
2019-05-14T07:30:39.838Z,26016.00
2019-05-14T07:31:39.623Z,61056.00
2019-05-14T07:32:39.818Z,14520.00
2019-05-14T07:33:39.600Z,25280.00
2019-05-14T07:34:39.591Z,23840.00
2019-05-14T07:35:40.487Z,18480.00
2019-05-14T07:36:39.573Z,17244.00
2019-05-14T07:37:39.986Z,10108.00
2019-05-14T07:38:39.563Z,10292.00
2019-05-14T07:39:39.535Z,13184.00
2019-05-14T07:40:39.522Z,13940.00
2019-05-14T07:41:39.504Z,11452.00
2019-05-14T07:42:39.528Z,9496.00
2019-05-14T07:43:39.604Z,9520.00
2019-05-14T07:44:39.473Z,13084.00
2019-05-14T07:45:39.460Z,11296.00
2019-05-14T07:46:39.478Z,11668.00
2019-05-14T07:47:39.444Z,7956.00
2019-05-14T07:48:39.546Z,9088.00
2019-05-14T07:49:39.417Z,11752.00
2019-05-14T07:50:39.907Z,11172.00
2019-05-14T07:51:39.392Z,10016.00
2019-05-14T07:52:45.452Z,10332.00
2019-05-14T07:53:42.475Z,11020.00
2019-05-14T07:54:39.374Z,19264.00
2019-05-14T07:55:39.348Z,20256.00
2019-05-14T07:56:39.387Z,13724.00
2019-05-14T07:57:39.565Z,7476.00
2019-05-14T07:58:39.319Z,6940.00
2019-05-14T07:59:39.299Z,7212.00
2019-05-14T08:00:40.279Z,6880.00
2019-05-14T08:01:39.279Z,6736.00
2019-05-14T08:02:39.283Z,7872.00
2019-05-14T08:03:39.255Z,9968.00
2019-05-14T08:04:39.295Z,11656.00
2019-05-14T08:05:39.263Z,12552.00
2019-05-14T08:06:39.549Z,13200.00
2019-05-14T08:07:39.209Z,12040.00
2019-05-14T08:08:39.241Z,15392.00
2019-05-14T08:09:39.214Z,18416.00
2019-05-14T08:10:39.336Z,27904.00
2019-05-14T08:11:39.163Z,24544.00
2019-05-14T08:12:39.380Z,20640.00
2019-05-14T08:13:40.181Z,19744.00
2019-05-14T08:14:54.822Z,16632.00
2019-05-14T08:15:40.142Z,20512.00
2019-05-14T08:16:39.139Z,18356.00
2019-05-14T08:17:39.103Z,18180.00
2019-05-14T08:18:39.749Z,15556.00
2019-05-14T08:19:39.078Z,14792.00
2019-05-14T08:20:39.072Z,26144.00
2019-05-14T08:21:39.051Z,23584.00
2019-05-14T08:22:39.040Z,52608.00
2019-05-14T08:23:39.418Z,21696.00
2019-05-14T08:24:39.017Z,15932.00
2019-05-14T08:25:39.227Z,16372.00
2019-05-14T08:26:42.973Z,18332.00
2019-05-14T08:27:39.099Z,16784.00
2019-05-14T08:28:38.972Z,20576.00
2019-05-14T08:29:40.060Z,18532.00
2019-05-14T08:30:39.136Z,13460.00
2019-05-14T08:31:38.936Z,12300.00
2019-05-14T08:32:39.205Z,12128.00
2019-05-14T08:33:39.645Z,14500.00
2019-05-14T08:34:39.136Z,27296.00
2019-05-14T08:35:39.528Z,20224.00
2019-05-14T08:36:38.895Z,13648.00
2019-05-14T08:37:38.978Z,12136.00
2019-05-14T08:38:38.864Z,9112.00
2019-05-14T08:39:39.391Z,7052.00
2019-05-14T08:40:38.845Z,6100.00
2019-05-14T08:41:38.824Z,6108.00
2019-05-14T08:42:38.810Z,7404.00
2019-05-14T08:43:39.718Z,9624.00
2019-05-14T08:44:39.173Z,10412.00
2019-05-14T08:45:38.990Z,10988.00
2019-05-14T08:46:39.032Z,63776.00
2019-05-14T08:47:39.231Z,10600.00
2019-05-14T08:48:39.122Z,13476.00
2019-05-14T08:49:45.828Z,23552.00
2019-05-14T08:51:03.203Z,68288.00
2019-05-14T08:52:03.193Z,76384.00
2019-05-14T08:53:03.181Z,35264.00
2019-05-14T08:54:03.171Z,79072.00
2019-05-14T08:55:11.055Z,71232.00
2019-05-14T08:56:04.172Z,11132.00
2019-05-14T08:57:03.200Z,6992.00
2019-05-14T08:58:03.225Z,5880.00
2019-05-14T08:59:03.114Z,5740.00
2019-05-14T09:00:03.115Z,6604.00
2019-05-14T09:01:03.094Z,8140.00
2019-05-14T09:02:06.547Z,10860.00
2019-05-14T09:03:28.754Z,15440.00
2019-05-14T09:04:30.402Z,80320.00
2019-05-14T09:05:28.720Z,82944.00
2019-05-14T09:06:28.954Z,20576.00
2019-05-14T09:07:28.924Z,16776.00
2019-05-14T09:08:28.437Z,33856.00
2019-05-14T09:09:28.894Z,15616.00
2019-05-14T09:10:28.560Z,16444.00
2019-05-14T09:11:34.416Z,20640.00
2019-05-14T09:12:28.467Z,18244.00
2019-05-14T09:13:28.995Z,13140.00
2019-05-14T09:14:28.180Z,20448.00
2019-05-14T09:15:28.863Z,20224.00
2019-05-14T09:16:41.891Z,17660.00
2019-05-14T09:17:51.869Z,17172.00
2019-05-14T09:18:51.857Z,19288.00
2019-05-14T09:20:02.447Z,83712.00
2019-05-14T09:21:16.321Z,29824.00
2019-05-14T09:22:18.457Z,89504.00
2019-05-14T09:23:18.735Z,27360.00
2019-05-14T09:24:18.195Z,36064.00
2019-05-14T09:25:18.728Z,20768.00
2019-05-14T09:26:18.122Z,12416.00
2019-05-14T09:27:19.021Z,12104.00
2019-05-14T09:28:18.836Z,14616.00
2019-05-14T09:29:22.458Z,35264.00
2019-05-14T09:30:18.550Z,87488.00
2019-05-14T09:31:19.082Z,23136.00
2019-05-14T09:32:18.959Z,27072.00
2019-05-14T09:33:18.751Z,17936.00
2019-05-14T09:34:16.178Z,18472.00
2019-05-14T09:35:18.586Z,79424.00
2019-05-14T09:37:40.623Z,22112.00
2019-05-14T09:38:42.241Z,22336.00
2019-05-14T09:39:40.627Z,91200.00
2019-05-14T09:40:40.600Z,58080.00
2019-05-14T09:42:40.573Z,83264.00
2019-05-14T09:43:40.555Z,86496.00
2019-05-14T09:44:40.541Z,86336.00
2019-05-14T09:45:40.534Z,20096.00
2019-05-14T09:46:40.518Z,16204.00
2019-05-14T09:47:40.521Z,16836.00
2019-05-14T09:48:40.497Z,15500.00
2019-05-14T09:49:40.485Z,15932.00
2019-05-14T09:50:40.475Z,9204.00
2019-05-14T09:51:40.464Z,7220.00
2019-05-14T09:52:40.453Z,6776.00
2019-05-14T09:53:40.440Z,7048.00
2019-05-14T09:54:44.023Z,7236.00
2019-05-14T09:55:40.427Z,6784.00
2019-05-14T09:56:40.430Z,6872.00
2019-05-14T09:57:40.399Z,7536.00
2019-05-14T09:58:40.415Z,8432.00
2019-05-14T09:59:40.374Z,9324.00
2019-05-14T10:00:40.368Z,10512.00
2019-05-14T10:01:40.352Z,11660.00
2019-05-14T10:02:40.387Z,12444.00
2019-05-14T10:03:40.338Z,13416.00
2019-05-14T10:04:40.319Z,15376.00
2019-05-14T10:05:40.314Z,21280.00
2019-05-14T10:06:40.338Z,27424.00
2019-05-14T10:07:40.290Z,20576.00
2019-05-14T10:08:40.318Z,18500.00
2019-05-14T10:09:40.288Z,19000.00
2019-05-14T10:10:40.276Z,17932.00
2019-05-14T10:11:40.246Z,16912.00
2019-05-14T10:12:51.838Z,17348.00
2019-05-14T10:13:41.247Z,86528.00
2019-05-14T10:14:40.211Z,91360.00
2019-05-14T10:15:40.200Z,20448.00
2019-05-14T10:16:40.220Z,16176.00
2019-05-14T10:17:40.177Z,15588.00
2019-05-14T10:18:40.175Z,16812.00
2019-05-14T10:19:40.169Z,19408.00
2019-05-14T10:20:45.299Z,21344.00
2019-05-14T10:21:40.132Z,11792.00
2019-05-14T10:22:40.130Z,8336.00
2019-05-14T10:23:40.115Z,5920.00
2019-05-14T10:24:40.134Z,4712.00
2019-05-14T10:25:42.352Z,4448.00
2019-05-14T10:26:40.081Z,4924.00
2019-05-14T10:27:40.067Z,5948.00
2019-05-14T10:28:43.324Z,7636.00
2019-05-14T10:29:40.043Z,9720.00
2019-05-14T10:30:40.032Z,12820.00
2019-05-14T10:31:40.023Z,11456.00
2019-05-14T10:32:41.640Z,12160.00
2019-05-14T10:33:40.002Z,13024.00
2019-05-14T10:34:40.033Z,15804.00
2019-05-14T10:35:39.980Z,18820.00
2019-05-14T10:36:39.980Z,84224.00
2019-05-14T10:37:40.254Z,21568.00
2019-05-14T10:38:39.982Z,87136.00
2019-05-14T10:39:39.932Z,32608.00
2019-05-14T10:40:39.933Z,24288.00
2019-05-14T10:41:39.917Z,19968.00
2019-05-14T10:42:40.397Z,11036.00
2019-05-14T10:43:39.890Z,7696.00
2019-05-14T10:44:39.886Z,7024.00
2019-05-14T10:45:39.899Z,7752.00
2019-05-14T10:46:39.863Z,8852.00
2019-05-14T10:47:39.846Z,10088.00
2019-05-14T10:48:39.833Z,12028.00
2019-05-14T10:49:39.825Z,29760.00
2019-05-14T10:50:55.832Z,18676.00
2019-05-14T10:52:04.278Z,18348.00
2019-05-14T10:53:04.274Z,32480.00
2019-05-14T10:54:18.851Z,91072.00
2019-05-14T10:55:05.265Z,40448.00
2019-05-14T10:56:04.232Z,99840.00
2019-05-14T10:57:04.221Z,98112.00
2019-05-14T10:58:04.209Z,60832.00
